Time;durP1;ratioP1;P1;durP2;ratioP2;P2;SDS_P1;SDS_P2;PMS_P1;PMS_P2;Temp;Humidity;BMP_temperature;BMP_pressure;BME280_temperature;BME280_humidity;BME280_pressure;Samples;Min_cycle;Max_cycle;Signal;HPM_P1;HPM_P2
2024/04/05 00:01:57;;;;;;;0.00;0.00;;;;;;;11.28;72.26;100625.19;15600710;28;20065;-50
2024/04/05 00:09:33;;;;;;;0.00;0.00;;;;;;;11.43;71.78;100628.38;15609939;28;20111;-49
2024/04/05 00:17:06;;;;;;;0.00;0.00;;;;;;;11.51;71.79;100620.03;15615753;28;20065;-49
2024/04/05 00:24:41;;;;;;;0.10;0.10;;;;;;;11.23;72.66;100623.13;15597725;28;20045;-53
2024/04/05 00:32:15;;;;;;;0.00;0.00;;;;;;;11.80;70.75;100628.47;15597971;28;20087;-50
2024/04/05 00:39:51;;;;;;;0.00;0.00;;;;;;;11.75;70.64;100640.75;15614381;28;20049;-50
2024/04/05 00:47:24;;;;;;;0.00;0.00;;;;;;;11.54;71.89;100638.41;15616138;28;20040;-48
2024/04/05 00:55:00;;;;;;;0.00;0.00;;;;;;;11.70;70.61;100650.47;15596304;28;20505;-49
2024/04/05 01:02:34;;;;;;;0.00;0.00;;;;;;;11.67;70.72;100661.69;15596116;28;20034;-49
2024/04/05 01:10:10;;;;;;;0.00;0.00;;;;;;;11.83;70.48;100668.41;15595901;28;20064;-50
2024/04/05 01:17:53;;;;;;;0.00;0.00;;;;;;;11.56;71.78;100667.75;15605966;28;20038;-51
2024/04/05 01:25:29;;;;;;;0.43;0.43;;;;;;;11.22;72.75;100659.94;15593716;28;20045;-49
2024/04/05 01:33:03;;;;;;;0.00;0.00;;;;;;;11.44;72.30;100667.66;15605100;28;20125;-51
2024/04/05 01:40:39;;;;;;;0.00;0.00;;;;;;;11.36;71.96;100666.03;15587683;28;20124;-49
2024/04/05 01:48:13;;;;;;;0.00;0.00;;;;;;;11.41;71.73;100678.84;15610263;28;20568;-49
2024/04/05 01:55:48;;;;;;;0.00;0.00;;;;;;;10.86;73.72;100679.34;15609881;28;20099;-48
2024/04/05 02:03:23;;;;;;;0.00;0.00;;;;;;;10.76;74.65;100667.41;15610331;28;20079;-47
2024/04/05 02:10:59;;;;;;;0.03;0.03;;;;;;;10.79;74.40;100681.25;15587002;28;20498;-48
2024/04/05 02:18:33;;;;;;;0.00;0.00;;;;;;;11.38;72.60;100690.03;15609023;28;20111;-48
2024/04/05 02:26:09;;;;;;;0.00;0.00;;;;;;;11.28;73.37;100681.59;15608796;28;20065;-49
2024/04/05 02:33:46;;;;;;;0.00;0.00;;;;;;;11.32;73.11;100686.31;15591811;28;20558;-51
2024/04/05 02:41:22;;;;;;;0.00;0.00;;;;;;;11.23;73.75;100696.50;15587292;28;20118;-50
2024/04/05 02:48:57;;;;;;;0.00;0.00;;;;;;;11.27;72.85;100696.91;15613941;28;20033;-51
2024/04/05 02:56:32;;;;;;;0.00;0.00;;;;;;;11.14;73.52;100703.16;15590268;28;20379;-50
2024/04/05 03:04:07;;;;;;;0.00;0.00;;;;;;;10.97;74.44;100705.53;15584733;28;20034;-50
2024/04/05 03:11:43;;;;;;;0.00;0.00;;;;;;;10.97;74.88;100716.28;15607899;28;20498;-50
2024/04/05 03:19:17;;;;;;;0.00;0.00;;;;;;;11.12;74.88;100718.69;15600331;28;20080;-49
2024/04/05 03:26:52;;;;;;;0.10;0.10;;;;;;;10.87;75.56;100723.16;15586618;28;20414;-49
2024/04/05 03:34:40;;;;;;;0.00;0.00;;;;;;;11.13;75.19;100725.69;15605402;28;20641;-49
2024/04/05 03:42:18;;;;;;;0.00;0.00;;;;;;;10.98;75.59;100725.97;15607381;28;20071;-50
2024/04/05 03:49:54;;;;;;;0.00;0.00;;;;;;;10.77;77.04;100730.81;15606418;28;20045;-50
2024/04/05 03:57:32;;;;;;;0.00;0.00;;;;;;;10.76;77.53;100737.22;15617089;28;20057;-49
2024/04/05 04:05:06;;;;;;;0.30;0.30;;;;;;;10.85;77.30;100744.00;15608651;28;20037;-50
2024/04/05 04:12:41;;;;;;;0.28;0.10;;;;;;;11.12;76.53;100742.88;15616575;28;20140;-50
2024/04/05 04:20:16;;;;;;;0.32;0.17;;;;;;;10.79;77.56;100745.69;15608325;28;20451;-52
2024/04/05 04:27:52;;;;;;;0.32;0.32;;;;;;;10.91;77.58;100765.47;15614228;28;20047;-52
2024/04/05 04:35:31;;;;;;;0.00;0.00;;;;;;;10.66;78.63;100764.50;15598469;28;20045;-52
2024/04/05 04:43:07;;;;;;;0.00;0.00;;;;;;;10.59;79.14;100775.25;15610697;28;20049;-49
2024/04/05 04:50:41;;;;;;;0.00;0.00;;;;;;;10.67;78.29;100774.19;15605822;28;20461;-47
2024/04/05 04:58:18;;;;;;;0.00;0.00;;;;;;;10.53;78.36;100788.69;15606565;28;20040;-51
2024/04/05 05:05:52;;;;;;;0.00;0.00;;;;;;;10.80;77.63;100781.41;15614405;28;20183;-50
2024/04/05 05:13:28;;;;;;;0.00;0.00;;;;;;;10.90;76.26;100798.72;15579649;28;20042;-48
2024/04/05 05:21:02;;;;;;;0.10;0.10;;;;;;;11.79;74.10;100796.25;15594252;28;20052;-54
2024/04/05 05:28:37;;;;;;;0.00;0.00;;;;;;;11.60;74.06;100809.59;15610860;28;20038;-50
2024/04/05 05:36:12;;;;;;;0.00;0.00;;;;;;;13.03;68.33;100814.25;15612139;28;20096;-52
2024/04/05 05:43:49;;;;;;;0.00;0.00;;;;;;;12.23;70.71;100828.47;15594441;28;20076;-49
2024/04/05 05:51:23;;;;;;;0.00;0.00;;;;;;;12.15;71.11;100831.41;15610275;28;20044;-49
2024/04/05 05:58:58;;;;;;;0.00;0.00;;;;;;;12.07;71.64;100839.75;15610107;28;20502;-49
2024/04/05 06:06:31;;;;;;;0.00;0.00;;;;;;;12.46;70.02;100845.88;15609635;28;20045;-51
2024/04/05 06:14:07;;;;;;;0.13;0.13;;;;;;;13.39;67.71;100842.28;15609208;28;20038;-52
2024/04/05 06:21:41;;;;;;;0.00;0.00;;;;;;;14.35;63.41;100843.19;15607509;28;20112;-49
2024/04/05 06:29:19;;;;;;;0.00;0.00;;;;;;;15.59;60.17;100854.63;15590434;28;20119;-50
2024/04/05 06:36:53;;;;;;;0.00;0.00;;;;;;;15.84;59.16;100854.31;15608491;28;20068;-48
2024/04/05 06:44:31;;;;;;;0.00;0.00;;;;;;;15.10;61.86;100854.13;15590397;28;20061;-56
2024/04/05 06:52:08;;;;;;;0.00;0.00;;;;;;;14.86;62.27;100845.22;15612640;28;20041;-49
2024/04/05 06:59:43;;;;;;;2.45;0.47;;;;;;;15.21;61.20;100852.50;15603906;28;20042;-50
2024/04/05 07:07:17;;;;;;;3.83;0.63;;;;;;;15.57;61.32;100854.03;15590350;28;20437;-53
2024/04/05 07:14:53;;;;;;;6.97;0.80;;;;;;;15.79;58.86;100846.91;15590456;28;20103;-50
2024/04/05 07:22:32;;;;;;;0.10;0.10;;;;;;;16.12;58.21;100850.75;15603969;28;20049;-50
2024/04/05 07:30:09;;;;;;;2.45;0.65;;;;;;;16.90;55.66;100861.78;15615086;28;20034;-49
2024/04/05 07:37:47;;;;;;;0.00;0.00;;;;;;;15.75;59.86;100858.47;15601815;28;20049;-49
2024/04/05 07:45:25;;;;;;;0.00;0.00;;;;;;;15.15;61.48;100859.66;15597974;28;20166;-52
2024/04/05 07:53:00;;;;;;;0.00;0.00;;;;;;;15.00;61.81;100872.84;15616583;28;20048;-50
2024/04/05 08:00:36;;;;;;;0.10;0.10;;;;;;;15.44;60.82;100871.38;15611022;28;20041;-52
2024/04/05 08:08:10;;;;;;;0.00;0.00;;;;;;;15.32;61.59;100873.28;15612922;28;20437;-49
2024/04/05 08:15:46;;;;;;;1.25;0.52;;;;;;;15.36;61.55;100879.84;15599636;28;20163;-50
2024/04/05 08:23:21;;;;;;;0.00;0.00;;;;;;;15.29;61.30;100876.44;15617493;28;20045;-50
2024/04/05 08:30:57;;;;;;;0.13;0.10;;;;;;;15.39;61.84;100890.22;15598460;28;20079;-55
2024/04/05 08:38:35;;;;;;;33.10;0.57;;;;;;;15.95;61.38;100904.06;15604065;28;20046;-52
2024/04/05 08:46:10;;;;;;;0.25;0.15;;;;;;;16.54;59.44;100912.69;15611649;28;20421;-53
2024/04/05 08:53:47;;;;;;;0.00;0.00;;;;;;;16.05;61.05;100907.78;15603937;28;20128;-48
2024/04/05 09:01:23;;;;;;;0.05;0.05;;;;;;;16.66;60.75;100908.03;15579956;28;20033;-49
2024/04/05 09:09:00;;;;;;;0.20;0.15;;;;;;;17.65;57.68;100907.28;15605554;28;20574;-49
2024/04/05 09:16:39;;;;;;;0.22;0.10;;;;;;;17.61;58.74;100903.41;15594739;28;20156;-47
2024/04/05 09:24:13;;;;;;;0.13;0.13;;;;;;;16.59;61.59;100902.75;15584302;28;20117;-48
2024/04/05 09:31:50;;;;;;;0.10;0.10;;;;;;;16.48;61.72;100895.53;15568379;28;20054;-48
2024/04/05 09:39:24;;;;;;;0.00;0.00;;;;;;;15.93;63.53;100900.75;15580782;28;20088;-48
2024/04/05 09:47:03;;;;;;;0.15;0.13;;;;;;;15.73;64.57;100917.44;15580096;28;20113;-49
2024/04/05 09:54:41;;;;;;;0.25;0.25;;;;;;;16.17;64.20;100894.16;15570205;28;20103;-48
2024/04/05 10:02:17;;;;;;;0.55;0.55;;;;;;;17.93;58.74;100891.88;15578155;28;20147;-48
2024/04/05 10:09:52;;;;;;;1.08;0.43;;;;;;;19.62;55.23;100884.72;15589480;28;20037;-47
2024/04/05 10:17:30;;;;;;;0.00;0.00;;;;;;;19.62;52.51;100894.78;15585890;28;20447;-50
2024/04/05 10:25:07;;;;;;;0.00;0.00;;;;;;;20.01;52.74;100867.13;15580410;28;20137;-49
2024/04/05 10:32:43;;;;;;;0.17;0.13;;;;;;;18.96;54.03;100889.78;15610753;28;20111;-50
2024/04/05 10:40:18;;;;;;;0.20;0.20;;;;;;;19.48;52.77;100861.75;15609664;28;20458;-48
2024/04/05 10:47:54;;;;;;;0.00;0.00;;;;;;;19.86;52.87;100849.66;15604181;28;20394;-47
2024/04/05 10:55:31;;;;;;;0.00;0.00;;;;;;;20.05;50.68;100846.41;15610310;28;20120;-49
2024/04/05 11:03:13;;;;;;;0.10;0.10;;;;;;;19.31;53.70;100836.66;15605854;28;20056;-51
2024/04/05 11:10:47;;;;;;;0.55;0.43;;;;;;;20.17;51.49;100833.34;15618526;28;20046;-49
2024/04/05 11:18:22;;;;;;;2.10;1.02;;;;;;;20.52;50.43;100809.94;15607206;28;20046;-49
2024/04/05 11:25:58;;;;;;;0.05;0.05;;;;;;;20.37;50.49;100803.34;15622413;28;20401;-50
2024/04/05 11:33:32;;;;;;;0.05;0.00;;;;;;;18.98;53.22;100783.44;15595317;28;20771;-51
2024/04/05 11:41:06;;;;;;;0.00;0.00;;;;;;;18.40;57.94;100766.22;15600392;28;20068;-52
2024/04/05 11:48:41;;;;;;;0.00;0.00;;;;;;;19.13;55.38;100736.44;15631050;28;20390;-48
2024/04/05 11:56:18;;;;;;;0.28;0.28;;;;;;;20.33;52.09;100709.59;15623110;28;20512;-48
2024/04/05 12:03:53;;;;;;;0.65;0.30;;;;;;;19.22;54.45;100722.06;15622529;28;20502;-52
2024/04/05 12:11:27;;;;;;;1.85;0.85;;;;;;;20.55;49.84;100706.53;15618848;28;20516;-50
2024/04/05 12:19:02;;;;;;;0.10;0.10;;;;;;;20.17;50.83;100713.44;15621427;28;20033;-48
2024/04/05 12:26:40;;;;;;;0.03;0.03;;;;;;;19.64;51.77;100695.75;15604591;28;20045;-52
2024/04/05 12:34:17;;;;;;;0.00;0.00;;;;;;;20.00;50.52;100681.00;15618676;28;20037;-47
2024/04/05 12:41:52;;;;;;;0.00;0.00;;;;;;;19.17;52.51;100696.75;15616151;28;20038;-50
2024/04/05 12:49:27;;;;;;;0.08;0.08;;;;;;;19.35;52.86;100683.44;15599975;28;20096;-48
2024/04/05 12:57:02;;;;;;;0.00;0.00;;;;;;;19.06;54.68;100685.00;15613811;28;20033;-49
2024/04/05 13:04:38;;;;;;;0.10;0.00;;;;;;;19.13;54.95;100680.13;15617347;28;20221;-51
2024/04/05 13:12:13;;;;;;;0.00;0.00;;;;;;;18.81;55.96;100672.13;15613501;28;20037;-49
2024/04/05 13:19:50;;;;;;;0.20;0.17;;;;;;;18.82;57.17;100661.00;15576767;28;20045;-47
2024/04/05 13:27:24;;;;;;;0.00;0.00;;;;;;;17.99;60.20;100609.19;15605341;28;20037;-49
2024/04/05 13:34:59;;;;;;;0.00;0.00;;;;;;;17.79;62.53;100604.47;15605253;28;20045;-50
2024/04/05 13:42:35;;;;;;;0.10;0.10;;;;;;;18.61;61.63;100599.44;15610902;28;20116;-50
2024/04/05 13:50:13;;;;;;;5.28;0.43;;;;;;;18.27;61.64;100572.66;15605530;28;20083;-50
2024/04/05 13:57:48;;;;;;;0.35;0.20;;;;;;;18.66;60.17;100571.47;15600730;28;20069;-49
2024/04/05 14:05:24;;;;;;;1.45;0.70;;;;;;;18.53;58.97;100549.13;15604035;28;20057;-47
2024/04/05 14:12:59;;;;;;;0.68;0.10;;;;;;;18.63;58.13;100515.72;15611407;28;20044;-53
2024/04/05 14:20:38;;;;;;;1.85;0.40;;;;;;;18.90;57.13;100498.38;15610036;28;20045;-53
2024/04/05 14:28:12;;;;;;;0.00;0.00;;;;;;;18.83;56.88;100525.81;15609988;28;20070;-47
2024/04/05 14:35:58;;;;;;;0.20;0.20;;;;;;;18.90;56.79;100510.06;15609784;28;20128;-47
2024/04/05 14:43:35;;;;;;;0.00;0.00;;;;;;;18.68;56.60;100491.25;15576040;28;20068;-51
2024/04/05 14:51:11;;;;;;;0.05;0.05;;;;;;;19.16;56.36;100505.44;15609459;28;20037;-49
2024/04/05 14:58:45;;;;;;;0.00;0.00;;;;;;;19.22;56.43;100509.81;15591420;28;20472;-48
2024/04/05 15:06:20;;;;;;;0.00;0.00;;;;;;;19.08;57.17;100506.00;15609041;28;20046;-48
2024/04/05 15:13:57;;;;;;;0.65;0.40;;;;;;;19.14;56.75;100512.25;15608892;28;20052;-52
2024/04/05 15:21:33;;;;;;;0.00;0.00;;;;;;;19.08;55.11;100512.25;15604836;28;20049;-51
2024/04/05 15:29:08;;;;;;;0.08;0.08;;;;;;;18.98;55.59;100514.13;15583779;28;20044;-53
2024/04/05 15:36:45;;;;;;;0.40;0.28;;;;;;;18.92;56.75;100520.66;15604675;28;20080;-51
2024/04/05 15:44:18;;;;;;;0.00;0.00;;;;;;;18.56;57.44;100485.28;15602535;28;20095;-50
2024/04/05 15:51:56;;;;;;;0.03;0.03;;;;;;;18.59;57.73;100474.66;15619047;28;20087;-50
2024/04/05 15:59:31;;;;;;;0.10;0.10;;;;;;;18.63;58.09;100445.03;15614996;28;20115;-53
2024/04/05 16:07:07;;;;;;;0.00;0.00;;;;;;;18.63;57.97;100447.75;15599194;28;20197;-51
2024/04/05 16:14:41;;;;;;;0.45;0.35;;;;;;;18.50;58.20;100440.94;15599041;28;20042;-51
2024/04/05 16:22:17;;;;;;;3.95;1.15;;;;;;;18.53;56.82;100445.84;15615984;28;20458;-51
2024/04/05 16:29:53;;;;;;;0.00;0.00;;;;;;;18.48;57.25;100421.38;15612065;28;20046;-50
2024/04/05 16:37:28;;;;;;;0.43;0.30;;;;;;;18.32;57.06;100401.50;15610729;28;20088;-52
2024/04/05 16:45:05;;;;;;;0.10;0.10;;;;;;;18.36;57.02;100369.19;15596960;28;20038;-52
2024/04/05 16:52:42;;;;;;;0.00;0.00;;;;;;;18.65;56.25;100369.44;15597249;28;20417;-52
2024/04/05 17:00:16;;;;;;;0.57;0.25;;;;;;;18.50;56.61;100364.03;15596483;28;20057;-53
2024/04/05 17:07:52;;;;;;;0.00;0.00;;;;;;;18.43;56.67;100358.88;15597010;28;20049;-50
2024/04/05 17:15:25;;;;;;;0.30;0.13;;;;;;;18.50;56.69;100353.16;15612867;28;20073;-49
2024/04/05 17:23:00;;;;;;;0.00;0.00;;;;;;;18.54;56.68;100356.97;15601367;28;20068;-51
2024/04/05 17:30:36;;;;;;;0.00;0.00;;;;;;;18.73;56.37;100349.09;15602313;28;20158;-51
2024/04/05 17:38:13;;;;;;;0.00;0.00;;;;;;;18.49;57.15;100346.09;15598500;28;20091;-53
2024/04/05 17:45:47;;;;;;;0.25;0.20;;;;;;;18.25;58.13;100343.91;15596988;28;20050;-49
2024/04/05 17:53:23;;;;;;;0.00;0.00;;;;;;;18.45;58.05;100355.88;15598748;28;20040;-50
2024/04/05 18:00:58;;;;;;;0.10;0.10;;;;;;;18.12;59.08;100358.03;15607520;28;20045;-48
2024/04/05 18:08:33;;;;;;;0.00;0.00;;;;;;;18.08;59.63;100365.88;15605423;28;20042;-50
2024/04/05 18:16:08;;;;;;;0.45;0.28;;;;;;;17.95;60.24;100368.28;15609659;28;20041;-51
2024/04/05 18:23:43;;;;;;;0.00;0.00;;;;;;;18.16;59.48;100364.53;15586141;28;20076;-48
2024/04/05 18:31:16;;;;;;;0.05;0.05;;;;;;;18.01;60.02;100372.69;15608930;28;20041;-50
2024/04/05 18:38:55;;;;;;;0.10;0.10;;;;;;;18.20;59.61;100386.56;15608976;28;20087;-50
2024/04/05 18:46:40;;;;;;;0.85;0.47;;;;;;;18.05;59.46;100403.66;15608668;28;20573;-49
2024/04/05 18:54:17;;;;;;;0.00;0.00;;;;;;;17.83;60.84;100456.25;15609140;28;20037;-51
2024/04/05 19:01:51;;;;;;;0.00;0.00;;;;;;;17.21;58.45;100456.97;15599306;28;20129;-51
2024/04/05 19:09:26;;;;;;;0.00;0.00;;;;;;;16.79;56.28;100484.84;15606138;28;20060;-50
2024/04/05 19:17:03;;;;;;;0.00;0.00;;;;;;;15.73;66.42;100503.41;15606498;28;20120;-50
2024/04/05 19:24:41;;;;;;;0.40;0.35;;;;;;;15.17;71.05;100508.75;15617044;28;20422;-52
2024/04/05 19:32:16;;;;;;;0.00;0.00;;;;;;;14.93;73.46;100526.22;15602430;28;20119;-51
2024/04/05 19:39:54;;;;;;;0.00;0.00;;;;;;;14.91;73.87;100544.53;15614259;28;20038;-50
2024/04/05 19:47:31;;;;;;;0.05;0.05;;;;;;;14.73;74.64;100550.97;15606998;28;20083;-50
2024/04/05 19:55:07;;;;;;;0.00;0.00;;;;;;;14.79;74.13;100571.63;15612835;28;20046;-49
2024/04/05 20:02:41;;;;;;;0.00;0.00;;;;;;;14.85;74.31;100589.56;15598738;28;20451;-51
2024/04/05 20:10:18;;;;;;;0.00;0.00;;;;;;;14.95;73.75;100602.44;15598871;28;20041;-51
2024/04/05 20:17:52;;;;;;;0.00;0.00;;;;;;;14.50;75.41;100605.91;15617781;28;20033;-53
2024/04/05 20:25:28;;;;;;;0.03;0.03;;;;;;;14.95;73.87;100633.00;15615093;28;20096;-51
2024/04/05 20:33:04;;;;;;;0.98;0.40;;;;;;;15.00;72.91;100645.78;15615223;28;20042;-49
2024/04/05 20:40:50;;;;;;;0.25;0.20;;;;;;;14.67;73.97;100654.59;15615852;28;20040;-52
2024/04/05 20:48:29;;;;;;;0.00;0.00;;;;;;;14.72;73.50;100660.91;15614548;28;20752;-49
2024/04/05 20:56:05;;;;;;;0.00;0.00;;;;;;;14.78;72.76;100678.91;15614670;28;20144;-51
2024/04/05 21:03:39;;;;;;;0.10;0.10;;;;;;;14.99;72.10;100695.50;15614666;28;20069;-53
2024/04/05 21:11:29;;;;;;;0.00;0.00;;;;;;;14.65;73.55;100716.16;15573181;28;20364;-49
2024/04/05 21:19:03;;;;;;;0.00;0.00;;;;;;;14.78;73.05;100727.53;15599639;28;20049;-51
2024/04/05 21:26:42;;;;;;;0.00;0.00;;;;;;;14.57;74.13;100738.13;15614771;28;20069;-51
2024/04/05 21:34:18;;;;;;;0.00;0.00;;;;;;;14.52;74.07;100733.44;15613419;28;20033;-51
2024/04/05 21:42:02;;;;;;;0.00;0.00;;;;;;;14.71;73.35;100753.84;15611308;28;20038;-50
2024/04/05 21:49:38;;;;;;;0.00;0.00;;;;;;;14.51;73.75;100758.81;15612445;28;20036;-53
2024/04/05 21:57:14;;;;;;;0.00;0.00;;;;;;;14.64;73.14;100766.69;15610762;28;20490;-51
2024/04/05 22:04:48;;;;;;;0.08;0.08;;;;;;;14.62;73.29;100767.97;15603516;28;20052;-51
2024/04/05 22:12:23;;;;;;;0.00;0.00;;;;;;;14.83;72.19;100785.41;15600808;28;20117;-53
2024/04/05 22:20:01;;;;;;;0.55;0.28;;;;;;;14.76;72.58;100780.97;15592965;28;20136;-53
2024/04/05 22:27:39;;;;;;;0.00;0.00;;;;;;;14.50;74.00;100790.41;15592415;28;20103;-54
2024/04/05 22:35:13;;;;;;;0.00;0.00;;;;;;;14.40;74.87;100805.50;15608496;28;20140;-50
2024/04/05 22:42:49;;;;;;;0.00;0.00;;;;;;;14.15;75.64;100817.31;15609138;28;20045;-51
2024/04/05 22:50:25;;;;;;;0.00;0.00;;;;;;;14.24;76.10;100818.63;15594323;28;20034;-53
2024/04/05 22:58:00;;;;;;;0.10;0.10;;;;;;;14.40;75.97;100833.31;15590687;28;20045;-50
2024/04/05 23:05:34;;;;;;;0.00;0.00;;;;;;;14.76;74.03;100845.00;15581811;28;20107;-51
2024/04/05 23:13:10;;;;;;;0.00;0.00;;;;;;;14.76;73.98;100858.50;15606857;28;20041;-49
2024/04/05 23:20:45;;;;;;;0.00;0.00;;;;;;;14.60;74.59;100848.44;15566422;28;20457;-47
2024/04/05 23:28:27;;;;;;;0.13;0.10;;;;;;;14.58;74.60;100851.34;15582176;28;20517;-53
2024/04/05 23:36:03;;;;;;;0.08;0.00;;;;;;;14.61;74.53;100856.28;15607754;28;20164;-50
2024/04/05 23:43:39;;;;;;;0.03;0.03;;;;;;;14.51;74.63;100858.75;15614924;28;20411;-50
2024/04/05 23:51:13;;;;;;;0.00;0.00;;;;;;;14.28;75.07;100859.50;15607159;28;20534;-51
2024/04/05 23:58:50;;;;;;;0.20;0.20;;;;;;;13.90;77.13;100868.78;15607282;28;20129;-50
